Time;durP1;ratioP1;P1;durP2;ratioP2;P2;SDS_P1;SDS_P2;PMS_P1;PMS_P2;Temp;Humidity;BMP_temperature;BMP_pressure;BME280_temperature;BME280_humidity;BME280_pressure;Samples;Min_cycle;Max_cycle;Signal;HPM_P1;HPM_P2
2023/11/16 00:01:50;;;;;;;6.03;2.70;;;;;;;6.37;100.00;100582.31;5047121;28;20482;-87
2023/11/16 00:04:16;;;;;;;11.77;3.50;;;;;;;6.41;100.00;100589.00;5033841;28;20483;-87
2023/11/16 00:06:42;;;;;;;18.27;4.95;;;;;;;6.32;100.00;100573.13;5033255;28;20158;-88
2023/11/16 00:09:08;;;;;;;8.48;2.53;;;;;;;6.38;100.00;100568.59;5033006;28;20049;-87
2023/11/16 00:11:33;;;;;;;10.48;3.08;;;;;;;6.44;100.00;100562.41;5031280;28;20468;-87
2023/11/16 00:13:58;;;;;;;10.55;2.90;;;;;;;6.48;100.00;100555.44;5032711;28;20026;-87
2023/11/16 00:16:25;;;;;;;7.93;2.42;;;;;;;6.42;100.00;100565.03;5032979;28;20025;-88
2023/11/16 00:18:51;;;;;;;12.52;2.90;;;;;;;6.53;100.00;100561.22;5048534;28;20033;-88
2023/11/16 00:21:16;;;;;;;14.27;3.60;;;;;;;6.47;100.00;100556.34;5052555;28;20570;-87
2023/11/16 00:23:41;;;;;;;9.98;2.90;;;;;;;6.47;100.00;100558.91;5052693;28;20029;-88
2023/11/16 00:26:10;;;;;;;7.90;2.50;;;;;;;6.47;100.00;100556.34;5052626;28;20105;-88
2023/11/16 00:28:36;;;;;;;11.82;2.90;;;;;;;6.51;100.00;100542.47;5051358;28;20025;-87
2023/11/16 00:31:01;;;;;;;7.55;2.78;;;;;;;6.45;100.00;100532.47;5052577;28;20025;-88
2023/11/16 00:33:27;;;;;;;9.18;2.85;;;;;;;6.45;100.00;100543.56;5050659;28;20087;-87
2023/11/16 00:35:58;;;;;;;11.70;2.85;;;;;;;6.46;100.00;100541.81;5052355;28;20127;-87
2023/11/16 00:38:25;;;;;;;10.88;2.90;;;;;;;6.32;100.00;100538.06;5052435;28;20021;-88
2023/11/16 00:40:51;;;;;;;15.50;2.95;;;;;;;6.41;100.00;100532.59;5051278;28;20471;-88
2023/11/16 00:43:16;;;;;;;14.10;3.78;;;;;;;6.42;100.00;100524.00;5052185;28;20040;-87
2023/11/16 00:45:41;;;;;;;8.48;2.20;;;;;;;6.47;100.00;100515.31;5051797;28;20032;-88
2023/11/16 00:48:08;;;;;;;5.38;2.13;;;;;;;6.46;100.00;100518.75;5050699;28;20112;-88
2023/11/16 00:50:34;;;;;;;15.10;3.40;;;;;;;6.40;100.00;100519.84;5050861;28;20024;-88
2023/11/16 00:52:59;;;;;;;9.15;2.28;;;;;;;6.31;100.00;100518.44;5051825;28;20029;-88
2023/11/16 00:55:26;;;;;;;5.25;2.28;;;;;;;6.49;100.00;100511.78;5050816;28;20120;-87
2023/11/16 00:57:51;;;;;;;11.02;2.60;;;;;;;6.39;100.00;100508.75;5050836;28;20111;-88
2023/11/16 01:00:17;;;;;;;10.07;2.42;;;;;;;6.45;100.00;100501.72;5052127;28;20020;-88
2023/11/16 01:02:43;;;;;;;8.50;2.58;;;;;;;6.40;100.00;100495.03;5037556;28;20038;-88
2023/11/16 01:05:10;;;;;;;7.68;2.08;;;;;;;6.38;100.00;100486.56;5030840;28;20027;-88
2023/11/16 01:07:38;;;;;;;11.07;2.47;;;;;;;6.36;100.00;100478.09;5032049;28;20037;-88
2023/11/16 01:10:06;;;;;;;6.60;2.08;;;;;;;6.38;100.00;100466.03;5030726;28;20427;-87
2023/11/16 01:12:31;;;;;;;8.77;2.20;;;;;;;6.33;100.00;100455.13;5031943;28;20112;-88
2023/11/16 01:14:59;;;;;;;16.13;2.75;;;;;;;6.41;100.00;100455.69;5031989;28;20117;-88
2023/11/16 01:17:32;;;;;;;8.10;2.35;;;;;;;6.35;100.00;100455.91;5030332;28;20088;-87
2023/11/16 01:19:59;;;;;;;7.93;2.03;;;;;;;6.37;100.00;100440.50;5031905;28;20025;-88
2023/11/16 01:22:26;;;;;;;10.60;2.55;;;;;;;6.35;100.00;100435.41;5032029;28;20032;-87
2023/11/16 01:24:52;;;;;;;12.15;2.55;;;;;;;6.42;100.00;100441.97;5031666;28;20443;-87
2023/11/16 01:27:26;;;;;;;10.57;1.92;;;;;;;6.42;100.00;100438.56;5032027;28;20049;-87
2023/11/16 01:29:51;;;;;;;10.98;2.97;;;;;;;6.67;100.00;100433.28;5031864;28;20025;-87
2023/11/16 01:32:17;;;;;;;15.38;2.50;;;;;;;6.46;100.00;100436.69;5038768;28;20381;-87
2023/11/16 01:34:45;;;;;;;9.68;1.77;;;;;;;6.32;100.00;100419.34;5051591;28;20029;-88
2023/11/16 01:37:11;;;;;;;6.88;1.73;;;;;;;6.35;100.00;100422.59;5051533;28;20031;-88
2023/11/16 01:39:39;;;;;;;9.05;1.92;;;;;;;6.36;100.00;100425.97;5051662;28;20025;-87
2023/11/16 01:42:09;;;;;;;7.90;1.63;;;;;;;6.41;100.00;100424.94;5051505;28;20104;-87
2023/11/16 01:44:34;;;;;;;11.20;2.42;;;;;;;6.39;100.00;100421.59;5051405;28;20024;-88
2023/11/16 01:47:02;;;;;;;9.85;2.33;;;;;;;6.45;100.00;100420.50;5050266;28;20082;-87
2023/11/16 01:49:28;;;;;;;10.20;1.23;;;;;;;6.54;100.00;100409.88;5051421;28;20078;-88
2023/11/16 01:51:57;;;;;;;8.52;1.25;;;;;;;6.54;100.00;100411.59;5051582;28;20118;-87
2023/11/16 01:54:23;;;;;;;7.03;1.10;;;;;;;6.47;100.00;100413.56;5051995;28;20119;-87
2023/11/16 01:56:50;;;;;;;10.00;1.77;;;;;;;6.42;100.00;100406.06;5053313;28;20501;-87
2023/11/16 01:59:18;;;;;;;6.25;1.10;;;;;;;6.40;100.00;100400.16;5055633;28;20032;-88
2023/11/16 02:01:43;;;;;;;13.75;1.50;;;;;;;6.58;100.00;100390.03;5053728;28;20194;-87
2023/11/16 02:04:09;;;;;;;3.38;1.25;;;;;;;6.51;100.00;100383.50;5055190;28;20167;-87
2023/11/16 02:06:34;;;;;;;7.18;1.73;;;;;;;6.48;100.00;100375.94;5055634;28;20286;-87
2023/11/16 02:09:00;;;;;;;4.30;1.33;;;;;;;6.47;100.00;100381.97;5055802;28;20029;-88
2023/11/16 02:11:27;;;;;;;7.38;1.20;;;;;;;6.48;100.00;100383.63;5054084;28;20021;-87
2023/11/16 02:13:53;;;;;;;6.47;0.95;;;;;;;6.46;100.00;100382.88;5053813;28;20379;-87
2023/11/16 02:16:18;;;;;;;5.00;1.20;;;;;;;6.48;100.00;100373.38;5054202;28;20040;-87
2023/11/16 02:18:44;;;;;;;4.25;1.38;;;;;;;6.45;100.00;100363.25;5047840;28;20471;-88
2023/11/16 02:21:09;;;;;;;10.35;1.50;;;;;;;6.48;100.00;100358.81;5035135;28;20090;-87
2023/11/16 02:23:36;;;;;;;7.95;1.83;;;;;;;6.42;100.00;100359.94;5035146;28;20568;-88
2023/11/16 02:26:02;;;;;;;9.73;1.95;;;;;;;6.37;100.00;100361.84;5034979;28;20030;-87
2023/11/16 02:28:30;;;;;;;5.68;1.48;;;;;;;6.42;100.00;100353.97;5034842;28;20063;-87
2023/11/16 02:30:57;;;;;;;6.57;1.40;;;;;;;6.46;100.00;100345.22;5034988;28;20021;-88
2023/11/16 02:33:23;;;;;;;11.88;1.95;;;;;;;6.50;100.00;100335.69;5037133;28;20108;-88
2023/11/16 02:35:52;;;;;;;7.03;1.83;;;;;;;6.39;100.00;100326.72;5034493;28;20503;-87
2023/11/16 02:38:18;;;;;;;9.77;2.08;;;;;;;6.36;100.00;100329.41;5034885;28;20053;-88
2023/11/16 02:40:44;;;;;;;6.05;1.60;;;;;;;6.40;100.00;100320.69;5033493;28;20025;-87
2023/11/16 02:43:10;;;;;;;12.65;2.47;;;;;;;6.44;100.00;100313.72;5034718;28;20434;-87
2023/11/16 02:45:36;;;;;;;10.98;2.13;;;;;;;6.57;100.00;100319.97;5033320;28;20120;-87
2023/11/16 02:48:06;;;;;;;8.05;2.45;;;;;;;6.61;100.00;100307.88;5033285;28;20112;-88
2023/11/16 02:50:32;;;;;;;14.10;2.88;;;;;;;6.65;100.00;100304.25;5042114;28;20021;-87
2023/11/16 02:52:58;;;;;;;14.32;2.30;;;;;;;6.78;100.00;100287.47;5054042;28;20438;-87
2023/11/16 02:55:24;;;;;;;19.65;2.97;;;;;;;6.86;100.00;100287.13;5054396;28;20025;-87
2023/11/16 02:57:50;;;;;;;25.90;4.30;;;;;;;6.96;100.00;100277.28;5053155;28;20025;-87
2023/11/16 03:00:17;;;;;;;15.35;2.45;;;;;;;6.90;100.00;100277.53;5053122;28;20529;-87
2023/11/16 03:02:44;;;;;;;11.73;2.28;;;;;;;6.96;100.00;100278.09;5054050;28;20083;-88
2023/11/16 03:05:12;;;;;;;12.65;2.03;;;;;;;6.92;100.00;100286.00;5048019;28;20575;-87
2023/11/16 03:07:38;;;;;;;17.88;2.58;;;;;;;6.92;100.00;100279.13;5034501;28;20072;-87
2023/11/16 03:10:05;;;;;;;13.30;3.08;;;;;;;6.91;100.00;100274.09;5034247;28;20068;-87
2023/11/16 03:12:30;;;;;;;8.43;2.78;;;;;;;6.91;100.00;100256.13;5034103;28;20087;-87
2023/11/16 03:14:56;;;;;;;12.05;2.38;;;;;;;6.89;100.00;100243.34;5034124;28;20022;-87
2023/11/16 03:17:23;;;;;;;23.92;4.35;;;;;;;6.90;100.00;100247.59;5032845;28;20044;-88
2023/11/16 03:19:48;;;;;;;10.95;2.42;;;;;;;6.97;100.00;100248.97;5033866;28;20033;-87
2023/11/16 03:22:13;;;;;;;8.93;2.50;;;;;;;6.88;100.00;100256.25;5053674;28;20079;-87
2023/11/16 03:24:39;;;;;;;11.40;2.45;;;;;;;6.90;100.00;100246.75;5053578;28;20025;-88
2023/11/16 03:27:05;;;;;;;10.77;2.50;;;;;;;6.89;100.00;100239.97;5052336;28;20028;-87
2023/11/16 03:29:31;;;;;;;10.05;2.15;;;;;;;7.01;100.00;100234.28;5051005;28;20025;-88
2023/11/16 03:31:56;;;;;;;10.73;3.20;;;;;;;6.94;100.00;100243.97;5053440;28;20028;-88
2023/11/16 03:34:22;;;;;;;15.18;3.33;;;;;;;6.92;100.00;100239.81;5053425;28;20048;-88
2023/11/16 03:36:48;;;;;;;14.75;2.55;;;;;;;6.91;100.00;100243.28;5053324;28;20048;-87
2023/11/16 03:39:13;;;;;;;11.05;1.95;;;;;;;6.87;100.00;100229.75;5038055;28;20487;-87
2023/11/16 03:41:38;;;;;;;11.00;2.17;;;;;;;6.85;100.00;100211.88;5033075;28;20083;-87
2023/11/16 03:44:04;;;;;;;11.13;2.58;;;;;;;6.93;100.00;100203.00;5033316;28;20387;-87
2023/11/16 03:46:30;;;;;;;19.05;2.78;;;;;;;6.90;100.00;100196.28;5033122;28;20040;-87
2023/11/16 03:48:55;;;;;;;15.50;2.65;;;;;;;6.84;100.00;100196.56;5032156;28;20026;-88
2023/11/16 03:51:21;;;;;;;15.50;2.80;;;;;;;6.80;100.00;100195.88;5033135;28;20036;-87
2023/11/16 03:53:46;;;;;;;12.80;2.78;;;;;;;6.90;100.00;100193.72;5033123;28;20036;-87
2023/11/16 03:56:11;;;;;;;15.68;2.28;;;;;;;6.86;100.00;100194.75;5032025;28;20022;-87
2023/11/16 03:58:37;;;;;;;10.75;2.40;;;;;;;6.80;100.00;100183.06;5045215;28;20024;-87
2023/11/16 04:01:03;;;;;;;10.93;2.70;;;;;;;6.80;100.00;100182.19;5052896;28;20017;-87
2023/11/16 04:03:28;;;;;;;22.42;4.10;;;;;;;6.74;100.00;100173.06;5052829;28;20028;-87
2023/11/16 04:05:54;;;;;;;8.30;2.20;;;;;;;6.77;100.00;100170.34;5052991;28;20072;-87
2023/11/16 04:08:19;;;;;;;6.60;2.67;;;;;;;6.67;100.00;100169.09;5051501;28;20455;-87
2023/11/16 04:10:45;;;;;;;13.90;2.78;;;;;;;6.58;100.00;100172.09;5052763;28;20167;-87
2023/11/16 04:13:11;;;;;;;20.75;2.70;;;;;;;6.53;100.00;100161.22;5042537;28;20052;-87
2023/11/16 04:15:37;;;;;;;11.18;2.63;;;;;;;6.48;100.00;100158.84;5033193;28;20467;-87
2023/11/16 04:18:03;;;;;;;13.70;2.67;;;;;;;6.52;100.00;100150.13;5033724;28;20033;-87
2023/11/16 04:20:29;;;;;;;11.13;2.85;;;;;;;6.53;100.00;100140.69;5032449;28;20048;-87
2023/11/16 04:22:55;;;;;;;14.55;2.40;;;;;;;6.50;100.00;100131.41;5032657;28;20025;-87
2023/11/16 04:25:27;;;;;;;17.70;2.33;;;;;;;6.45;100.00;100123.09;5032531;28;20021;-87
2023/11/16 04:27:59;;;;;;;14.20;2.60;;;;;;;6.51;100.00;100119.41;5031408;28;20022;-87
2023/11/16 04:30:26;;;;;;;12.65;2.42;;;;;;;6.43;100.00;100117.22;5030799;28;20083;-87
2023/11/16 04:32:52;;;;;;;14.55;2.28;;;;;;;6.54;100.00;100116.75;5032043;28;20065;-87
2023/11/16 04:35:20;;;;;;;16.77;2.53;;;;;;;6.49;100.00;100100.75;5032352;28;20440;-87
2023/11/16 04:37:46;;;;;;;14.45;2.33;;;;;;;6.54;100.00;100096.22;5032609;28;20025;-87
2023/11/16 04:40:13;;;;;;;11.25;1.85;;;;;;;6.45;100.00;100091.50;5032652;28;20079;-87
2023/11/16 04:42:41;;;;;;;21.70;2.95;;;;;;;6.56;100.00;100089.25;5032379;28;20036;-87
2023/11/16 04:45:11;;;;;;;9.20;1.95;;;;;;;6.47;100.00;100071.78;5035052;28;20035;-87
2023/11/16 04:47:39;;;;;;;15.95;2.70;;;;;;;6.49;100.00;100057.97;5052131;28;20368;-87
2023/11/16 04:50:10;;;;;;;14.82;3.40;;;;;;;6.42;100.00;100072.81;5050729;28;20071;-87
2023/11/16 04:52:36;;;;;;;14.18;2.08;;;;;;;6.41;100.00;100078.84;5052229;28;20479;-87
2023/11/16 04:55:03;;;;;;;10.65;2.22;;;;;;;6.50;100.00;100079.31;5052141;28;20426;-87
2023/11/16 04:57:28;;;;;;;10.07;2.47;;;;;;;6.51;100.00;100078.41;5052131;28;20076;-87
2023/11/16 04:59:54;;;;;;;10.38;2.90;;;;;;;6.46;100.00;100078.59;5049956;28;20044;-87
2023/11/16 05:02:20;;;;;;;7.93;2.00;;;;;;;6.46;100.00;100073.47;5050500;28;20029;-87
2023/11/16 05:04:46;;;;;;;10.38;2.40;;;;;;;6.45;100.00;100065.88;5052010;28;20027;-87
2023/11/16 05:07:12;;;;;;;14.13;2.30;;;;;;;6.48;100.00;100060.59;5052003;28;20437;-87
2023/11/16 05:09:38;;;;;;;14.20;2.08;;;;;;;6.40;100.00;100046.41;5051841;28;20060;-87
2023/11/16 05:12:05;;;;;;;9.93;2.58;;;;;;;6.47;100.00;100053.81;5051948;28;20072;-87
2023/11/16 05:14:30;;;;;;;7.05;1.90;;;;;;;6.47;100.00;100056.38;5050489;28;20028;-87
2023/11/16 05:16:55;;;;;;;13.20;2.20;;;;;;;6.49;100.00;100046.91;5051760;28;20021;-87
2023/11/16 05:19:21;;;;;;;6.88;1.92;;;;;;;6.49;100.00;100042.59;5051880;28;20032;-87
2023/11/16 05:21:48;;;;;;;16.13;1.90;;;;;;;6.50;100.00;100046.81;5051705;28;20045;-87
2023/11/16 05:24:13;;;;;;;10.45;1.77;;;;;;;6.48;100.00;100035.78;5051624;28;20017;-87
2023/11/16 05:26:39;;;;;;;11.45;2.60;;;;;;;6.38;100.00;100029.44;5051762;28;20036;-87
2023/11/16 05:29:04;;;;;;;9.70;2.75;;;;;;;6.46;100.00;100026.50;5050530;28;20481;-87
2023/11/16 05:31:30;;;;;;;12.82;1.98;;;;;;;6.46;100.00;100036.75;5053134;28;20042;-87
2023/11/16 05:33:55;;;;;;;13.85;1.85;;;;;;;6.41;100.00;100045.53;5055897;28;20025;-87
2023/11/16 05:36:21;;;;;;;11.57;1.85;;;;;;;6.38;100.00;100044.81;5055655;28;20044;-87
2023/11/16 05:38:47;;;;;;;9.25;2.03;;;;;;;6.38;100.00;100034.56;5055819;28;20030;-87
2023/11/16 05:41:13;;;;;;;23.38;3.05;;;;;;;6.45;100.00;100019.72;5055607;28;20100;-87
2023/11/16 05:43:39;;;;;;;14.02;2.08;;;;;;;6.36;100.00;100026.94;5053958;28;20032;-87
2023/11/16 05:46:05;;;;;;;20.13;3.20;;;;;;;6.32;100.00;100015.19;5054321;28;20033;-87
2023/11/16 05:48:31;;;;;;;9.70;2.17;;;;;;;6.39;100.00;100008.88;5055403;28;20029;-87
2023/11/16 05:50:57;;;;;;;11.13;2.55;;;;;;;6.38;100.00;100009.75;5055456;28;20021;-87
2023/11/16 05:53:22;;;;;;;10.73;2.15;;;;;;;6.34;100.00;100000.56;5055445;28;20466;-87
2023/11/16 05:55:48;;;;;;;10.13;1.73;;;;;;;6.45;100.00;99996.66;5055277;28;20025;-87
2023/11/16 05:58:14;;;;;;;13.70;2.22;;;;;;;6.39;100.00;100005.47;5054439;28;20025;-87
2023/11/16 06:00:39;;;;;;;5.68;1.40;;;;;;;6.36;100.00;100010.72;5049790;28;20036;-87
2023/11/16 06:03:06;;;;;;;11.77;1.88;;;;;;;6.43;100.00;100004.41;5035144;28;20384;-87
2023/11/16 06:05:33;;;;;;;7.85;1.63;;;;;;;6.51;100.00;99998.91;5034081;28;20120;-87
2023/11/16 06:07:58;;;;;;;14.57;2.58;;;;;;;6.41;100.00;99996.81;5035145;28;20028;-87
2023/11/16 06:10:24;;;;;;;11.32;3.85;;;;;;;6.38;100.00;99989.25;5035210;28;20092;-87
2023/11/16 06:12:49;;;;;;;8.25;2.28;;;;;;;6.39;100.00;99990.09;5035023;28;20383;-87
2023/11/16 06:15:15;;;;;;;15.20;2.45;;;;;;;6.33;100.00;99991.19;5034497;28;20030;-87
2023/11/16 06:17:43;;;;;;;13.43;1.80;;;;;;;6.34;100.00;99985.19;5034749;28;20031;-87
2023/11/16 06:20:12;;;;;;;12.95;3.40;;;;;;;6.34;100.00;99985.19;5051207;28;20029;-87
2023/11/16 06:22:38;;;;;;;13.52;2.00;;;;;;;6.36;100.00;99991.06;5054920;28;20017;-87
2023/11/16 06:25:04;;;;;;;5.55;1.42;;;;;;;6.55;100.00;99982.50;5054920;28;20479;-87
2023/11/16 06:27:33;;;;;;;7.07;1.90;;;;;;;6.47;100.00;99980.31;5054796;28;20029;-87
2023/11/16 06:29:59;;;;;;;19.83;2.20;;;;;;;6.45;100.00;99984.66;5042788;28;20027;-87
2023/11/16 06:32:24;;;;;;;13.90;3.50;;;;;;;6.41;100.00;99984.00;5033041;28;20030;-87
2023/11/16 06:34:49;;;;;;;11.85;1.92;;;;;;;6.45;100.00;99976.16;5032512;28;20041;-87
2023/11/16 06:37:15;;;;;;;12.63;1.85;;;;;;;6.44;100.00;99983.03;5034663;28;20033;-87
2023/11/16 06:39:40;;;;;;;14.85;2.33;;;;;;;6.31;100.00;99977.63;5034689;28;20446;-87
2023/11/16 06:42:06;;;;;;;16.42;2.40;;;;;;;6.37;100.00;99991.91;5033169;28;20033;-86
2023/11/16 06:44:32;;;;;;;8.73;1.92;;;;;;;6.45;100.00;99983.84;5032653;28;20030;-86
2023/11/16 06:46:57;;;;;;;13.65;2.65;;;;;;;6.26;100.00;99982.13;5043008;28;20087;-87
2023/11/16 06:49:26;;;;;;;9.35;1.98;;;;;;;6.39;100.00;99978.09;5054271;28;20025;-87
2023/11/16 06:51:52;;;;;;;7.47;2.03;;;;;;;6.31;100.00;99981.94;5054114;28;20715;-88
2023/11/16 06:54:18;;;;;;;9.60;1.73;;;;;;;6.38;100.00;99973.88;5054139;28;20112;-87
2023/11/16 06:56:44;;;;;;;7.40;1.90;;;;;;;6.41;100.00;99978.88;5052403;28;20104;-87
2023/11/16 06:59:13;;;;;;;6.95;1.88;;;;;;;6.41;100.00;99971.19;5041749;28;20048;-87
2023/11/16 07:01:39;;;;;;;11.40;2.40;;;;;;;6.35;100.00;99968.91;5044986;28;20025;-86
2023/11/16 07:04:05;;;;;;;6.10;1.67;;;;;;;6.40;100.00;99974.63;5035558;28;20059;-87
2023/11/16 07:06:31;;;;;;;11.32;1.85;;;;;;;6.46;100.00;99970.09;5034252;28;20025;-87
2023/11/16 07:08:56;;;;;;;13.63;2.05;;;;;;;6.45;100.00;99960.78;5034612;28;20037;-86
2023/11/16 07:11:22;;;;;;;9.07;1.92;;;;;;;6.50;100.00;99972.47;5042980;28;20379;-86
2023/11/16 07:13:47;;;;;;;7.90;1.70;;;;;;;6.43;100.00;99961.66;5043772;28;20032;-87
2023/11/16 07:16:13;;;;;;;6.50;1.45;;;;;;;6.51;100.00;99958.75;5039464;28;20029;-87
2023/11/16 07:18:39;;;;;;;12.80;3.03;;;;;;;6.46;100.00;99962.41;5034027;28;20108;-86
2023/11/16 07:21:06;;;;;;;22.92;2.92;;;;;;;6.35;100.00;99966.34;5034271;28;20164;-86
2023/11/16 07:23:32;;;;;;;9.05;1.50;;;;;;;6.37;100.00;99954.28;5032505;28;20103;-86
2023/11/16 07:26:00;;;;;;;12.43;1.70;;;;;;;6.26;100.00;99948.81;5033885;28;20025;-87
2023/11/16 07:28:28;;;;;;;6.88;1.50;;;;;;;6.22;100.00;99952.44;5034051;28;20028;-87
2023/11/16 07:30:54;;;;;;;15.05;2.63;;;;;;;6.11;100.00;99960.63;5034034;28;20099;-86
2023/11/16 07:33:21;;;;;;;9.40;2.28;;;;;;;6.23;100.00;99954.09;5053339;28;20104;-87
2023/11/16 07:35:47;;;;;;;10.60;2.10;;;;;;;6.14;100.00;99965.59;5046469;28;20460;-86
2023/11/16 07:38:17;;;;;;;5.68;1.63;;;;;;;6.03;100.00;99967.84;5046332;28;20046;-86
2023/11/16 07:40:43;;;;;;;9.05;2.10;;;;;;;6.08;100.00;99975.31;5033534;28;20052;-85
2023/11/16 07:43:09;;;;;;;14.32;2.85;;;;;;;6.07;100.00;99984.75;5033577;28;20460;-86
2023/11/16 07:45:34;;;;;;;11.55;2.33;;;;;;;5.94;100.00;99979.34;5033651;28;20037;-86
2023/11/16 07:48:03;;;;;;;9.77;2.80;;;;;;;5.83;100.00;99970.44;5031982;28;20060;-86
2023/11/16 07:50:31;;;;;;;16.80;2.63;;;;;;;5.85;100.00;99979.72;5034807;28;20471;-86
2023/11/16 07:52:57;;;;;;;11.07;2.55;;;;;;;5.78;100.00;99973.22;5046319;28;20049;-86
2023/11/16 07:55:25;;;;;;;16.63;3.00;;;;;;;5.83;100.00;99970.44;5034234;28;20074;-85
2023/11/16 07:57:52;;;;;;;8.00;2.35;;;;;;;5.76;100.00;99962.22;5033356;28;20049;-85
2023/11/16 08:00:26;;;;;;;15.23;2.95;;;;;;;5.71;100.00;99982.09;5033919;28;20144;-85
2023/11/16 08:05:39;;;;;;;11.85;2.42;;;;;;;5.68;100.00;99977.09;5032929;28;20059;-85
2023/11/16 08:08:07;;;;;;;11.23;2.28;;;;;;;5.67;100.00;99983.94;5032938;28;20071;-85
2023/11/16 08:10:33;;;;;;;18.85;2.33;;;;;;;5.68;100.00;99979.66;5042609;28;20385;-85
2023/11/16 08:13:00;;;;;;;9.02;2.47;;;;;;;5.74;100.00;99971.69;5034026;28;20044;-88
2023/11/16 08:15:26;;;;;;;14.32;2.45;;;;;;;5.72;100.00;99976.06;5044822;28;20036;-86
2023/11/16 08:17:52;;;;;;;12.25;2.72;;;;;;;5.73;100.00;99964.91;5031476;28;20018;-86
2023/11/16 08:20:23;;;;;;;10.07;2.58;;;;;;;5.72;100.00;99953.84;5040829;28;20096;-85
2023/11/16 08:22:51;;;;;;;8.07;2.45;;;;;;;5.66;100.00;99954.13;5052556;28;20029;-86
2023/11/16 08:25:23;;;;;;;10.50;2.92;;;;;;;5.64;100.00;99962.78;5052428;28;20475;-85
2023/11/16 08:27:51;;;;;;;13.18;2.75;;;;;;;5.75;100.00;99963.09;5044596;28;20112;-85
2023/11/16 08:30:17;;;;;;;11.18;2.80;;;;;;;5.73;100.00;99959.78;5047350;28;20104;-85
2023/11/16 08:32:44;;;;;;;9.90;2.60;;;;;;;5.65;100.00;99955.00;5052163;28;20414;-85
2023/11/16 08:35:10;;;;;;;11.07;2.72;;;;;;;5.56;100.00;99958.81;5052254;28;20032;-85
2023/11/16 08:37:36;;;;;;;9.02;2.60;;;;;;;5.60;100.00;99958.69;5042768;28;20037;-86
2023/11/16 08:40:03;;;;;;;12.43;2.95;;;;;;;5.60;100.00;99961.25;5032409;28;20022;-86
2023/11/16 08:42:35;;;;;;;9.02;3.10;;;;;;;5.70;100.00;99967.59;5035050;28;20021;-86
2023/11/16 08:45:01;;;;;;;8.73;3.03;;;;;;;5.71;100.00;99974.41;5043225;28;20057;-85
2023/11/16 08:47:27;;;;;;;12.98;3.10;;;;;;;5.78;100.00;99978.34;5052231;28;20486;-86
2023/11/16 08:49:53;;;;;;;10.13;3.35;;;;;;;5.85;100.00;99987.41;5052150;28;20056;-85
2023/11/16 08:52:21;;;;;;;14.90;3.50;;;;;;;5.90;100.00;99992.31;5047877;28;20044;-85
2023/11/16 08:54:47;;;;;;;11.90;4.57;;;;;;;5.87;100.00;99990.72;5052142;28;20031;-85
2023/11/16 08:57:13;;;;;;;19.98;3.47;;;;;;;5.84;100.00;99996.00;5046784;28;20020;-85
2023/11/16 08:59:58;;;;;;;16.60;3.70;;;;;;;5.84;100.00;100000.28;5030748;28;20025;-86
2023/11/16 09:02:24;;;;;;;17.50;2.83;;;;;;;5.90;100.00;99998.28;5042272;28;20471;-85
2023/11/16 09:04:50;;;;;;;10.52;3.63;;;;;;;6.00;100.00;100009.81;5040222;28;20028;-86
2023/11/16 09:07:16;;;;;;;12.40;2.92;;;;;;;5.90;100.00;100012.81;5035193;28;20024;-85
2023/11/16 09:09:42;;;;;;;8.63;3.40;;;;;;;6.00;100.00;100020.06;5031938;28;20479;-86
2023/11/16 09:12:12;;;;;;;11.88;2.97;;;;;;;6.10;100.00;100017.09;5032300;28;20033;-87
2023/11/16 09:14:40;;;;;;;10.35;3.10;;;;;;;5.97;100.00;100024.47;5049206;28;20086;-85
2023/11/16 09:17:16;;;;;;;10.38;2.30;;;;;;;5.96;100.00;100022.81;5049392;28;20040;-85
2023/11/16 09:19:42;;;;;;;13.70;2.97;;;;;;;6.06;100.00;100028.38;5035234;28;20021;-85
2023/11/16 09:22:09;;;;;;;15.55;2.92;;;;;;;6.15;100.00;100038.19;5048152;28;20025;-85
2023/11/16 09:24:36;;;;;;;11.00;2.20;;;;;;;6.15;100.00;100043.31;5031842;28;20040;-86
2023/11/16 09:27:04;;;;;;;10.85;3.00;;;;;;;6.07;100.00;100035.13;5030712;28;20498;-86
2023/11/16 09:29:29;;;;;;;5.43;2.17;;;;;;;6.15;100.00;100051.00;5031813;28;20071;-86
2023/11/16 09:31:55;;;;;;;10.25;2.45;;;;;;;6.13;100.00;100050.25;5031722;28;20029;-86
2023/11/16 09:34:21;;;;;;;15.00;2.60;;;;;;;6.14;100.00;100046.75;5031803;28;20029;-86
2023/11/16 09:36:47;;;;;;;11.35;2.63;;;;;;;6.21;100.00;100073.78;5031773;28;20025;-86
2023/11/16 09:39:14;;;;;;;10.35;2.22;;;;;;;6.18;100.00;100068.81;5031601;28;20022;-86
2023/11/16 09:41:49;;;;;;;8.98;1.90;;;;;;;6.23;100.00;100064.28;5031704;28;20403;-86
2023/11/16 09:44:17;;;;;;;14.80;2.78;;;;;;;6.31;100.00;100067.31;5031591;28;20033;-86
2023/11/16 09:46:46;;;;;;;11.48;2.40;;;;;;;6.24;100.00;100076.19;5031632;28;20104;-86
2023/11/16 09:49:16;;;;;;;11.35;2.83;;;;;;;6.26;100.00;100076.97;5031428;28;20159;-86
2023/11/16 09:51:43;;;;;;;11.07;2.75;;;;;;;6.19;100.00;100091.81;5031275;28;20025;-86
2023/11/16 09:54:10;;;;;;;6.68;2.35;;;;;;;6.27;100.00;100088.88;5031335;28;20029;-86
2023/11/16 09:56:40;;;;;;;8.45;1.92;;;;;;;6.38;100.00;100096.91;5031432;28;20399;-86
2023/11/16 09:59:13;;;;;;;8.52;2.00;;;;;;;6.37;100.00;100097.00;5031265;28;20095;-86
2023/11/16 10:01:44;;;;;;;9.13;2.72;;;;;;;6.39;100.00;100106.28;5031396;28;20036;-86
2023/11/16 10:04:12;;;;;;;12.95;2.15;;;;;;;6.43;100.00;100097.53;5031235;28;20057;-86
2023/11/16 10:06:40;;;;;;;7.30;2.05;;;;;;;6.45;100.00;100101.78;5031279;28;20491;-86
2023/11/16 10:09:14;;;;;;;11.25;3.03;;;;;;;6.60;100.00;100107.00;5031322;28;20032;-86
2023/11/16 10:11:40;;;;;;;8.65;2.15;;;;;;;6.53;100.00;100104.81;5031228;28;20598;-86
2023/11/16 10:14:05;;;;;;;12.95;2.63;;;;;;;6.56;100.00;100115.75;5031045;28;20099;-86
2023/11/16 10:16:31;;;;;;;11.07;1.90;;;;;;;6.69;100.00;100121.16;5030094;28;20082;-86
2023/11/16 10:19:06;;;;;;;4.38;1.67;;;;;;;6.80;100.00;100126.63;5034882;28;20472;-86
2023/11/16 10:21:34;;;;;;;7.10;1.92;;;;;;;6.78;100.00;100131.00;5034994;28;20479;-86
2023/11/16 10:24:08;;;;;;;9.77;2.28;;;;;;;6.72;100.00;100141.53;5034761;28;20025;-86
2023/11/16 10:26:34;;;;;;;10.25;1.83;;;;;;;6.81;100.00;100145.41;5034680;28;20442;-86
2023/11/16 10:29:00;;;;;;;7.55;1.65;;;;;;;6.83;100.00;100157.25;5034784;28;20029;-86
2023/11/16 10:31:31;;;;;;;7.43;1.83;;;;;;;6.90;100.00;100165.50;5035079;28;20479;-86
2023/11/16 10:33:58;;;;;;;6.13;1.73;;;;;;;6.85;100.00;100168.28;5033374;28;20032;-86
2023/11/16 10:36:27;;;;;;;14.38;1.88;;;;;;;6.83;100.00;100161.56;5034945;28;20557;-86
2023/11/16 10:38:57;;;;;;;10.63;1.33;;;;;;;6.82;100.00;100167.56;5034825;28;20064;-86
2023/11/16 10:41:23;;;;;;;14.57;2.33;;;;;;;6.97;100.00;100181.41;5032966;28;20034;-86
2023/11/16 10:43:53;;;;;;;9.68;2.53;;;;;;;6.91;100.00;100181.72;5033625;28;20033;-86
2023/11/16 10:46:20;;;;;;;8.88;1.98;;;;;;;6.91;100.00;100184.28;5033639;28;20033;-86
2023/11/16 10:48:48;;;;;;;15.32;1.98;;;;;;;7.05;100.00;100189.63;5034335;28;20152;-86
2023/11/16 10:51:17;;;;;;;8.95;2.10;;;;;;;7.05;100.00;100184.47;5034416;28;20476;-86
2023/11/16 10:53:44;;;;;;;9.60;2.75;;;;;;;7.13;100.00;100186.69;5034502;28;20047;-86
2023/11/16 10:56:11;;;;;;;9.82;2.60;;;;;;;7.04;100.00;100195.63;5034211;28;20021;-86
2023/11/16 10:58:41;;;;;;;6.53;1.45;;;;;;;7.09;100.00;100185.97;5034552;28;20084;-86
2023/11/16 11:01:11;;;;;;;10.85;1.77;;;;;;;7.16;100.00;100197.63;5034353;28;20064;-86
2023/11/16 11:03:40;;;;;;;9.85;1.60;;;;;;;7.23;100.00;100203.31;5033165;28;20028;-86
2023/11/16 11:06:12;;;;;;;11.68;1.70;;;;;;;7.36;100.00;100204.38;5032963;28;20017;-86
2023/11/16 11:08:40;;;;;;;12.10;2.35;;;;;;;7.25;100.00;100197.19;5032729;28;20025;-86
2023/11/16 11:11:07;;;;;;;8.23;1.95;;;;;;;7.26;100.00;100203.97;5034034;28;20068;-87
2023/11/16 11:13:33;;;;;;;9.95;1.80;;;;;;;7.36;100.00;100209.50;5049469;28;20036;-86
2023/11/16 11:16:06;;;;;;;11.02;2.78;;;;;;;7.46;100.00;100200.47;5033972;28;20105;-86
2023/11/16 11:18:32;;;;;;;8.10;1.95;;;;;;;7.54;100.00;100197.53;5033949;28;20026;-87
2023/11/16 11:21:07;;;;;;;6.93;2.28;;;;;;;7.65;100.00;100190.13;5033804;28;20506;-87
2023/11/16 11:23:33;;;;;;;11.50;2.10;;;;;;;7.64;100.00;100193.59;5033583;28;20029;-87